createdAt,value
2022-12-29T00:01:54.338Z,9.23
2022-12-29T00:04:03.057Z,8.93
2022-12-29T00:06:11.935Z,6.67
2022-12-29T00:08:21.077Z,5.03
2022-12-29T00:10:29.895Z,5.97
2022-12-29T00:12:55.853Z,5.20
2022-12-29T00:15:24.289Z,3.63
2022-12-29T00:17:33.561Z,4.23
2022-12-29T00:19:59.918Z,2.63
2022-12-29T00:22:26.101Z,3.43
2022-12-29T00:24:51.805Z,4.80
2022-12-29T00:27:29.301Z,8.33
2022-12-29T00:29:55.309Z,3.63
2022-12-29T00:32:24.135Z,4.60
2022-12-29T00:34:49.957Z,6.93
2022-12-29T00:36:59.706Z,6.23
2022-12-29T00:39:30.389Z,8.33
2022-12-29T00:41:56.457Z,13.57
2022-12-29T00:44:08.052Z,7.23
2022-12-29T00:46:19.969Z,14.20
2022-12-29T00:48:47.559Z,26.93
2022-12-29T00:50:58.595Z,22.77
2022-12-29T00:53:33.902Z,27.63
2022-12-29T00:55:43.171Z,11.63
2022-12-29T00:57:52.038Z,22.13
2022-12-29T01:00:00.948Z,19.70
2022-12-29T01:02:10.512Z,26.00
2022-12-29T01:04:22.587Z,18.03
2022-12-29T01:06:31.443Z,29.87
2022-12-29T01:08:41.154Z,22.23
2022-12-29T01:10:58.632Z,8.77
2022-12-29T01:13:07.472Z,9.97
2022-12-29T01:15:18.316Z,7.10
2022-12-29T01:17:26.765Z,7.63
2022-12-29T01:19:37.496Z,7.77
2022-12-29T01:21:45.852Z,8.43
2022-12-29T01:23:54.380Z,11.80
2022-12-29T01:26:12.134Z,11.47
2022-12-29T01:28:25.755Z,6.07
2022-12-29T01:30:35.457Z,5.70
2022-12-29T01:32:44.471Z,8.13
2022-12-29T01:34:54.321Z,6.33
2022-12-29T01:37:03.117Z,5.07
2022-12-29T01:39:11.853Z,6.43
2022-12-29T01:41:20.813Z,6.43
2022-12-29T01:43:42.649Z,11.27
2022-12-29T01:45:54.240Z,8.30
2022-12-29T01:48:05.431Z,10.43
2022-12-29T01:50:18.618Z,11.10
2022-12-29T01:52:29.933Z,6.93
2022-12-29T01:54:41.673Z,7.60
2022-12-29T01:56:51.039Z,6.67
2022-12-29T01:59:04.514Z,6.60
2022-12-29T02:01:13.426Z,7.93
2022-12-29T02:03:24.157Z,8.67
2022-12-29T02:05:37.689Z,6.17
2022-12-29T02:07:46.551Z,7.20
2022-12-29T02:09:56.496Z,8.40
2022-12-29T02:12:05.853Z,5.17
2022-12-29T02:14:15.136Z,4.93
2022-12-29T02:16:35.729Z,6.67
2022-12-29T02:18:49.210Z,8.20
2022-12-29T02:21:31.149Z,8.40
2022-12-29T02:23:50.384Z,6.93
2022-12-29T02:26:17.369Z,9.37
2022-12-29T02:28:46.778Z,5.20
2022-12-29T02:31:01.742Z,6.50
2022-12-29T02:33:16.641Z,5.43
2022-12-29T02:35:32.397Z,5.63
2022-12-29T02:37:45.332Z,6.53
2022-12-29T02:39:56.152Z,3.80
2022-12-29T02:42:10.841Z,3.67
2022-12-29T02:44:22.502Z,3.23
2022-12-29T02:46:38.099Z,5.50
2022-12-29T02:48:50.313Z,5.73
2022-12-29T02:51:02.489Z,7.67
2022-12-29T02:53:13.529Z,4.97
2022-12-29T02:55:22.185Z,3.10
2022-12-29T02:57:32.957Z,4.73
2022-12-29T02:59:43.122Z,6.50
2022-12-29T03:02:22.265Z,5.87
2022-12-29T03:04:35.343Z,3.37
2022-12-29T03:06:53.330Z,6.27
2022-12-29T03:09:05.705Z,6.20
2022-12-29T03:11:48.442Z,5.10
2022-12-29T03:14:17.631Z,5.23
2022-12-29T03:16:30.140Z,5.60
2022-12-29T03:18:59.295Z,5.43
2022-12-29T03:21:11.180Z,3.83
2022-12-29T03:23:21.370Z,5.70
2022-12-29T03:25:32.839Z,5.60
2022-12-29T03:27:44.773Z,4.70
2022-12-29T03:29:55.961Z,7.43
2022-12-29T03:32:06.125Z,4.30
2022-12-29T03:34:17.380Z,5.03
2022-12-29T03:36:30.240Z,4.73
2022-12-29T03:38:41.766Z,6.63
2022-12-29T03:40:52.587Z,4.13
2022-12-29T03:43:01.769Z,6.50
2022-12-29T03:45:11.508Z,4.67
2022-12-29T03:47:20.727Z,4.60
2022-12-29T03:49:30.926Z,7.60
2022-12-29T03:51:40.095Z,7.70
2022-12-29T03:53:49.153Z,4.47
2022-12-29T03:55:58.158Z,4.20
2022-12-29T03:58:07.122Z,5.70
2022-12-29T04:00:17.211Z,5.67
2022-12-29T04:02:27.130Z,7.47
2022-12-29T04:04:37.404Z,4.97
2022-12-29T04:06:46.529Z,5.13
2022-12-29T04:08:55.551Z,7.10
2022-12-29T04:11:06.048Z,7.70
2022-12-29T04:13:15.057Z,5.10
2022-12-29T04:15:25.519Z,5.97
2022-12-29T04:17:34.910Z,5.47
2022-12-29T04:19:45.615Z,9.13
2022-12-29T04:21:54.983Z,7.03
2022-12-29T04:24:04.136Z,5.87
2022-12-29T04:26:13.163Z,9.10
2022-12-29T04:28:21.883Z,6.97
2022-12-29T04:30:31.258Z,6.57
2022-12-29T04:32:40.423Z,7.10
2022-12-29T04:34:50.681Z,7.80
2022-12-29T04:36:59.903Z,5.50
2022-12-29T04:39:09.553Z,7.40
2022-12-29T04:41:18.259Z,5.13
2022-12-29T04:43:26.748Z,5.20
2022-12-29T04:45:35.829Z,5.70
2022-12-29T04:47:44.853Z,4.73
2022-12-29T04:49:55.179Z,6.33
2022-12-29T04:52:03.813Z,5.70
2022-12-29T04:54:12.788Z,5.97
2022-12-29T04:56:21.709Z,7.27
2022-12-29T04:58:31.146Z,4.70
2022-12-29T05:00:40.042Z,3.40
2022-12-29T05:02:49.261Z,7.47
2022-12-29T05:04:59.924Z,8.50
2022-12-29T05:07:08.688Z,6.23
2022-12-29T05:09:17.911Z,6.93
2022-12-29T05:11:27.471Z,4.87
2022-12-29T05:13:36.289Z,6.20
2022-12-29T05:15:49.145Z,8.07
2022-12-29T05:17:58.220Z,5.20
2022-12-29T05:20:10.263Z,7.87
2022-12-29T05:22:19.381Z,8.63
2022-12-29T05:24:28.297Z,10.73
2022-12-29T05:26:36.970Z,8.70
2022-12-29T05:28:46.241Z,7.60
2022-12-29T05:30:55.421Z,8.00
2022-12-29T05:33:04.323Z,6.33
2022-12-29T05:35:14.976Z,6.13
2022-12-29T05:37:23.567Z,7.30
2022-12-29T05:39:32.589Z,4.90
2022-12-29T05:41:41.843Z,5.63
2022-12-29T05:43:50.925Z,6.67
2022-12-29T05:46:00.342Z,6.53
2022-12-29T05:48:09.135Z,5.50
2022-12-29T05:50:20.304Z,7.07
2022-12-29T05:52:29.363Z,10.90
2022-12-29T05:54:38.395Z,9.33
2022-12-29T05:56:47.494Z,8.00
2022-12-29T05:58:56.371Z,9.27
2022-12-29T06:01:05.912Z,6.60
2022-12-29T06:03:15.477Z,8.70
2022-12-29T06:05:26.859Z,8.73
2022-12-29T06:07:35.605Z,7.20
2022-12-29T06:09:44.706Z,9.27
2022-12-29T06:11:53.633Z,7.77
2022-12-29T06:14:02.506Z,8.30
2022-12-29T06:16:11.410Z,8.83
2022-12-29T06:18:20.711Z,6.10
2022-12-29T06:20:31.387Z,10.23
2022-12-29T06:22:40.246Z,5.50
2022-12-29T06:24:49.590Z,6.53
2022-12-29T06:26:58.993Z,8.77
2022-12-29T06:29:08.134Z,5.20
2022-12-29T06:31:16.763Z,6.27
2022-12-29T06:33:26.215Z,4.73
2022-12-29T06:35:36.652Z,4.60
2022-12-29T06:37:45.511Z,4.10
2022-12-29T06:39:54.705Z,6.60
2022-12-29T06:42:03.994Z,6.93
2022-12-29T06:44:13.355Z,2.93
2022-12-29T06:46:22.537Z,5.53
2022-12-29T06:48:31.493Z,3.23
2022-12-29T06:50:41.821Z,6.97
2022-12-29T06:52:52.209Z,9.23
2022-12-29T06:55:01.394Z,6.20
2022-12-29T06:57:10.300Z,6.63
2022-12-29T06:59:19.125Z,6.80
2022-12-29T07:01:28.250Z,4.20
2022-12-29T07:03:37.244Z,4.97
2022-12-29T07:05:48.236Z,6.87
2022-12-29T07:07:57.554Z,8.60
2022-12-29T07:10:06.858Z,7.00
2022-12-29T07:12:16.091Z,5.80
2022-12-29T07:14:25.608Z,7.47
2022-12-29T07:16:35.879Z,11.40
2022-12-29T07:18:45.463Z,7.33
2022-12-29T07:20:55.971Z,6.73
2022-12-29T07:23:05.847Z,6.17
2022-12-29T07:25:14.521Z,10.73
2022-12-29T07:27:24.199Z,12.60
2022-12-29T07:29:33.133Z,9.43
2022-12-29T07:31:42.676Z,9.73
2022-12-29T07:33:52.058Z,5.13
2022-12-29T07:36:03.029Z,9.90
2022-12-29T07:38:12.134Z,11.23
2022-12-29T07:40:21.239Z,9.47
2022-12-29T07:42:30.412Z,8.40
2022-12-29T07:44:39.117Z,10.83
2022-12-29T07:46:53.802Z,9.80
2022-12-29T07:49:03.856Z,10.93
2022-12-29T07:51:14.315Z,6.37
2022-12-29T07:53:23.418Z,13.70
2022-12-29T07:55:32.948Z,14.17
2022-12-29T07:57:41.957Z,8.30
2022-12-29T07:59:51.171Z,8.93
2022-12-29T08:02:00.819Z,11.03
2022-12-29T08:04:10.180Z,12.47
2022-12-29T08:06:21.162Z,14.03
2022-12-29T08:08:30.278Z,12.77
2022-12-29T08:10:38.841Z,18.53
2022-12-29T08:12:47.628Z,13.57
2022-12-29T08:14:56.650Z,12.47
2022-12-29T08:17:05.724Z,28.53
2022-12-29T08:19:14.956Z,16.63
2022-12-29T08:21:25.088Z,19.43
2022-12-29T08:23:34.031Z,18.27
2022-12-29T08:25:43.222Z,17.93
2022-12-29T08:27:52.325Z,23.73
2022-12-29T08:30:02.594Z,16.10
2022-12-29T08:32:11.409Z,19.47
2022-12-29T08:34:20.636Z,21.27
2022-12-29T08:36:31.450Z,15.83
2022-12-29T08:38:40.416Z,24.20
2022-12-29T08:40:49.416Z,13.13
2022-12-29T08:42:58.111Z,13.40
2022-12-29T08:45:07.400Z,21.73
2022-12-29T08:47:16.526Z,18.37
2022-12-29T08:49:25.489Z,17.90
2022-12-29T08:51:35.744Z,17.60
2022-12-29T08:53:44.775Z,21.03
2022-12-29T08:56:04.035Z,11.00
2022-12-29T08:58:15.686Z,15.33
2022-12-29T09:00:24.543Z,17.73
2022-12-29T09:02:33.703Z,15.97
2022-12-29T09:04:42.962Z,16.70
2022-12-29T09:06:53.832Z,11.97
2022-12-29T09:09:02.469Z,15.07
2022-12-29T09:11:11.729Z,13.77
2022-12-29T09:13:20.643Z,10.50
2022-12-29T09:15:29.540Z,13.90
2022-12-29T09:17:47.721Z,14.53
2022-12-29T09:19:56.834Z,9.93
2022-12-29T09:22:07.194Z,15.67
2022-12-29T09:24:15.865Z,12.23
2022-12-29T09:26:24.623Z,11.67
2022-12-29T09:28:34.068Z,11.57
2022-12-29T09:30:43.030Z,8.23
2022-12-29T09:32:55.264Z,6.57
2022-12-29T09:35:04.700Z,11.70
2022-12-29T09:37:15.548Z,6.57
2022-12-29T09:39:24.985Z,7.20
2022-12-29T09:41:39.140Z,7.10
2022-12-29T09:43:54.187Z,8.93
2022-12-29T09:46:09.109Z,4.73
2022-12-29T09:48:21.517Z,5.73
2022-12-29T09:50:33.523Z,7.23
2022-12-29T09:52:47.813Z,5.07
2022-12-29T09:55:03.137Z,2.93
2022-12-29T09:57:18.216Z,2.93
2022-12-29T09:59:30.735Z,2.60
2022-12-29T10:01:45.193Z,3.20
2022-12-29T10:03:55.746Z,4.00
2022-12-29T10:06:09.371Z,4.43
2022-12-29T10:08:25.906Z,3.07
2022-12-29T10:10:38.763Z,4.20
2022-12-29T10:12:55.042Z,2.77
2022-12-29T10:15:08.109Z,5.50
2022-12-29T10:17:26.214Z,3.60
2022-12-29T10:19:51.657Z,2.80
2022-12-29T10:22:04.248Z,4.77
2022-12-29T10:24:15.742Z,3.93
2022-12-29T10:26:26.600Z,3.67
2022-12-29T10:28:38.635Z,7.53
2022-12-29T10:30:48.855Z,4.73
2022-12-29T10:33:00.119Z,5.00
2022-12-29T10:35:15.116Z,7.77
2022-12-29T10:37:33.606Z,8.67
2022-12-29T10:39:49.028Z,7.50
2022-12-29T10:42:01.348Z,8.03
2022-12-29T10:44:14.088Z,5.10
2022-12-29T10:46:25.230Z,9.10
2022-12-29T10:48:34.711Z,7.23
2022-12-29T10:50:44.417Z,5.97
2022-12-29T10:52:53.742Z,5.13
2022-12-29T10:55:07.214Z,3.67
2022-12-29T10:57:22.805Z,6.37
2022-12-29T10:59:32.651Z,5.93
2022-12-29T11:01:46.469Z,7.60
2022-12-29T11:04:02.094Z,4.10
2022-12-29T11:06:13.596Z,5.57
2022-12-29T11:08:23.563Z,3.80
2022-12-29T11:10:42.170Z,4.33
2022-12-29T11:12:59.339Z,3.90
2022-12-29T11:15:16.096Z,3.67
2022-12-29T11:17:25.010Z,2.70
2022-12-29T11:19:40.773Z,3.27
2022-12-29T11:21:49.801Z,6.37
2022-12-29T11:23:59.975Z,4.20
2022-12-29T11:26:11.936Z,3.43
2022-12-29T11:28:21.108Z,3.60
2022-12-29T11:30:31.428Z,3.97
2022-12-29T11:32:53.454Z,4.97
2022-12-29T11:35:02.991Z,5.57
2022-12-29T11:37:14.720Z,5.73
2022-12-29T11:39:36.188Z,4.10
2022-12-29T11:41:54.544Z,3.60
2022-12-29T11:44:04.957Z,3.30
2022-12-29T11:46:18.032Z,3.50
2022-12-29T11:48:28.536Z,2.77
2022-12-29T11:50:39.151Z,3.20
2022-12-29T11:52:48.676Z,2.77
2022-12-29T11:54:58.598Z,4.27
2022-12-29T11:57:16.551Z,3.07
2022-12-29T11:59:43.519Z,3.13
2022-12-29T12:01:53.058Z,6.40
2022-12-29T12:04:04.645Z,3.93
2022-12-29T12:06:16.482Z,3.37
2022-12-29T12:08:35.375Z,4.07
2022-12-29T12:10:46.762Z,4.73
2022-12-29T12:13:00.287Z,3.27
2022-12-29T12:15:13.482Z,3.40
2022-12-29T12:17:25.457Z,4.20
2022-12-29T12:19:36.496Z,2.33
2022-12-29T12:21:47.119Z,2.60
2022-12-29T12:24:11.224Z,2.93
2022-12-29T12:26:22.267Z,3.90
2022-12-29T12:28:37.922Z,3.77
2022-12-29T12:30:48.482Z,3.27
2022-12-29T12:32:59.058Z,3.47
2022-12-29T12:35:08.252Z,3.57
2022-12-29T12:37:30.732Z,7.30
2022-12-29T12:39:43.412Z,2.53
2022-12-29T12:41:57.055Z,3.20
2022-12-29T12:44:10.815Z,2.10
2022-12-29T12:46:26.645Z,2.17
2022-12-29T12:48:47.209Z,4.83
2022-12-29T12:50:59.216Z,2.40
2022-12-29T12:53:19.338Z,2.63
2022-12-29T12:55:37.674Z,2.17
2022-12-29T12:57:54.251Z,1.80
2022-12-29T13:00:07.091Z,2.50
2022-12-29T13:02:23.675Z,2.03
2022-12-29T13:04:50.681Z,2.77
2022-12-29T13:07:04.142Z,2.80
2022-12-29T13:09:19.801Z,3.57
2022-12-29T13:11:32.491Z,2.17
2022-12-29T13:13:59.811Z,3.23
2022-12-29T13:16:15.847Z,2.60
2022-12-29T13:18:28.934Z,3.07
2022-12-29T13:20:43.762Z,3.30
2022-12-29T13:22:57.241Z,2.40
2022-12-29T13:25:18.404Z,2.53
2022-12-29T13:27:37.354Z,2.87
2022-12-29T13:29:50.882Z,5.77
2022-12-29T13:32:05.938Z,2.93
2022-12-29T13:34:18.878Z,4.47
2022-12-29T13:36:30.324Z,3.93
2022-12-29T13:38:41.060Z,3.03
2022-12-29T13:40:53.110Z,4.20
2022-12-29T13:43:03.006Z,3.50
2022-12-29T13:45:14.856Z,4.37
2022-12-29T13:47:28.838Z,3.50
2022-12-29T13:49:38.817Z,4.90
2022-12-29T13:51:51.220Z,4.13
2022-12-29T13:54:15.228Z,4.73
2022-12-29T13:56:27.787Z,3.67
2022-12-29T13:58:38.644Z,3.73
2022-12-29T14:00:52.076Z,4.50
2022-12-29T14:03:14.602Z,2.77
2022-12-29T14:05:33.350Z,3.33
2022-12-29T14:07:43.372Z,3.60
2022-12-29T14:09:53.724Z,4.60
2022-12-29T14:12:02.842Z,3.20
2022-12-29T14:14:16.054Z,4.27
2022-12-29T14:16:29.543Z,2.70
2022-12-29T14:18:45.819Z,4.43
2022-12-29T14:20:57.260Z,3.17
2022-12-29T14:23:19.250Z,3.00
2022-12-29T14:25:47.396Z,3.23
2022-12-29T14:27:57.218Z,2.70
2022-12-29T14:30:06.678Z,2.30
2022-12-29T14:32:33.760Z,3.93
2022-12-29T14:34:51.899Z,2.93
2022-12-29T14:37:02.257Z,2.53
2022-12-29T14:39:35.370Z,4.47
2022-12-29T14:41:44.973Z,2.70
2022-12-29T14:44:12.377Z,4.20
2022-12-29T14:46:21.598Z,5.27
2022-12-29T14:48:35.868Z,8.60
2022-12-29T14:50:47.167Z,4.20
2022-12-29T14:53:03.112Z,4.20
2022-12-29T14:55:28.195Z,3.70
2022-12-29T14:57:39.686Z,4.00
2022-12-29T14:59:49.888Z,3.90
2022-12-29T15:01:59.898Z,3.53
2022-12-29T15:04:17.499Z,4.70
2022-12-29T15:06:29.142Z,9.63
2022-12-29T15:08:41.079Z,5.40
2022-12-29T15:10:52.091Z,7.07
2022-12-29T15:13:05.748Z,6.83
2022-12-29T15:15:21.586Z,8.03
2022-12-29T15:17:31.637Z,6.90
2022-12-29T15:19:41.147Z,9.57
2022-12-29T15:21:51.726Z,7.87
2022-12-29T15:24:00.882Z,7.37
2022-12-29T15:26:12.135Z,8.67
2022-12-29T15:28:23.914Z,8.83
2022-12-29T15:30:32.940Z,8.03
2022-12-29T15:32:42.902Z,6.63
2022-12-29T15:34:52.995Z,7.53
2022-12-29T15:37:08.985Z,8.40
2022-12-29T15:39:22.059Z,9.67
2022-12-29T15:41:55.443Z,9.23
2022-12-29T15:44:09.607Z,10.27
2022-12-29T15:46:19.114Z,9.07
2022-12-29T15:48:28.672Z,9.53
2022-12-29T15:50:38.977Z,9.47
2022-12-29T15:52:49.018Z,12.03
2022-12-29T15:54:58.629Z,12.37
2022-12-29T15:57:14.200Z,11.60
2022-12-29T15:59:27.457Z,11.80
2022-12-29T16:01:38.054Z,10.47
2022-12-29T16:03:48.322Z,10.87
2022-12-29T16:05:57.973Z,9.17
2022-12-29T16:08:24.563Z,10.83
2022-12-29T16:10:35.838Z,9.83
2022-12-29T16:12:44.961Z,8.87
2022-12-29T16:14:56.348Z,8.00
2022-12-29T16:17:06.602Z,9.80
2022-12-29T16:19:17.404Z,9.33
2022-12-29T16:21:28.078Z,7.43
2022-12-29T16:23:39.807Z,6.90
2022-12-29T16:25:49.536Z,8.13
2022-12-29T16:27:58.930Z,7.73
2022-12-29T16:30:09.669Z,8.03
2022-12-29T16:32:29.526Z,6.67
2022-12-29T16:34:47.369Z,7.27
2022-12-29T16:36:57.529Z,7.43
2022-12-29T16:39:23.257Z,7.60
2022-12-29T16:41:34.491Z,9.60
2022-12-29T16:43:44.294Z,6.97
2022-12-29T16:46:08.359Z,7.17
2022-12-29T16:48:22.401Z,8.30
2022-12-29T16:50:32.021Z,6.37
2022-12-29T16:52:41.463Z,8.30
2022-12-29T16:54:53.125Z,12.07
2022-12-29T16:57:04.426Z,8.47
2022-12-29T16:59:27.544Z,8.03
2022-12-29T17:01:38.523Z,11.50
2022-12-29T17:03:50.247Z,8.97
2022-12-29T17:05:58.966Z,12.53
2022-12-29T17:08:17.355Z,7.67
2022-12-29T17:10:46.963Z,8.83
2022-12-29T17:12:57.151Z,13.73
2022-12-29T17:15:11.216Z,10.60
2022-12-29T17:17:21.695Z,9.37
2022-12-29T17:19:32.782Z,11.23
2022-12-29T17:21:42.614Z,9.27
2022-12-29T17:23:51.563Z,13.03
2022-12-29T17:26:00.703Z,11.03
2022-12-29T17:28:16.087Z,14.43
2022-12-29T17:30:31.228Z,14.40
2022-12-29T17:32:42.617Z,15.47
2022-12-29T17:34:52.050Z,12.70
2022-12-29T17:37:00.715Z,11.43
2022-12-29T17:39:09.859Z,11.67
2022-12-29T17:41:18.621Z,14.37
2022-12-29T17:43:36.456Z,11.43
2022-12-29T17:45:47.402Z,9.93
2022-12-29T17:47:57.017Z,14.47
2022-12-29T17:50:06.821Z,11.23
2022-12-29T17:52:16.064Z,10.77
2022-12-29T17:54:26.148Z,12.87
2022-12-29T17:56:35.176Z,13.17
2022-12-29T17:58:46.191Z,12.13
2022-12-29T18:00:56.191Z,16.10
2022-12-29T18:03:05.496Z,10.30
2022-12-29T18:05:19.548Z,12.67
2022-12-29T18:07:35.349Z,17.83
2022-12-29T18:09:44.639Z,9.17
2022-12-29T18:11:53.906Z,12.00
2022-12-29T18:14:04.708Z,25.73
2022-12-29T18:16:14.740Z,14.30
2022-12-29T18:18:24.997Z,14.60
2022-12-29T18:20:34.107Z,14.53
2022-12-29T18:22:42.865Z,15.37
2022-12-29T18:24:51.952Z,14.47
2022-12-29T18:27:01.399Z,13.63
2022-12-29T18:29:11.900Z,13.17
2022-12-29T18:31:21.795Z,19.37
2022-12-29T18:33:31.513Z,11.60
2022-12-29T18:35:41.598Z,12.47
2022-12-29T18:37:50.647Z,16.97
2022-12-29T18:39:59.598Z,10.60
2022-12-29T18:42:08.713Z,9.87
2022-12-29T18:44:20.889Z,13.37
2022-12-29T18:46:30.313Z,11.07
2022-12-29T18:48:39.783Z,9.60
2022-12-29T18:50:49.639Z,10.20
2022-12-29T18:53:03.811Z,11.13
2022-12-29T18:55:15.642Z,11.03
2022-12-29T18:57:24.775Z,13.97
2022-12-29T18:59:34.981Z,9.87
2022-12-29T19:01:44.284Z,14.07
2022-12-29T19:03:53.427Z,21.27
2022-12-29T19:06:02.667Z,9.50
2022-12-29T19:08:12.729Z,15.63
2022-12-29T19:10:22.332Z,13.53
2022-12-29T19:12:31.246Z,10.80
2022-12-29T19:14:41.629Z,10.77
2022-12-29T19:16:50.483Z,10.13
2022-12-29T19:19:09.390Z,11.63
2022-12-29T19:21:20.242Z,10.00
2022-12-29T19:23:30.880Z,11.40
2022-12-29T19:25:40.242Z,11.87
2022-12-29T19:27:49.950Z,10.97
2022-12-29T19:30:00.661Z,13.47
2022-12-29T19:32:10.190Z,8.63
2022-12-29T19:34:19.853Z,10.93
2022-12-29T19:36:28.624Z,11.40
2022-12-29T19:38:37.382Z,12.57
2022-12-29T19:40:47.199Z,8.20
2022-12-29T19:42:56.570Z,9.97
2022-12-29T19:45:08.043Z,13.07
2022-12-29T19:47:20.680Z,11.17
2022-12-29T19:49:29.998Z,6.73
2022-12-29T19:51:39.078Z,9.70
2022-12-29T19:53:48.603Z,11.77
2022-12-29T19:55:57.679Z,8.67
2022-12-29T19:58:06.573Z,10.30
2022-12-29T20:00:17.885Z,8.27
2022-12-29T20:02:28.318Z,13.33
2022-12-29T20:04:37.561Z,16.37
2022-12-29T20:06:46.368Z,12.07
2022-12-29T20:08:56.102Z,9.07
2022-12-29T20:11:05.626Z,10.83
2022-12-29T20:13:14.565Z,13.30
2022-12-29T20:15:25.193Z,13.87
2022-12-29T20:18:10.831Z,16.40
2022-12-29T20:20:04.092Z,14.23
2022-12-29T20:22:13.083Z,11.00
2022-12-29T20:24:22.181Z,14.77
2022-12-29T20:26:31.975Z,9.07
2022-12-29T20:28:40.864Z,12.47
2022-12-29T20:30:58.708Z,9.07
2022-12-29T20:33:08.691Z,11.93
2022-12-29T20:35:17.663Z,12.70
2022-12-29T20:37:26.484Z,9.90
2022-12-29T20:39:35.444Z,14.97
2022-12-29T20:41:44.817Z,11.00
2022-12-29T20:43:54.990Z,10.97
2022-12-29T20:46:06.211Z,9.77
2022-12-29T20:48:15.233Z,9.70
2022-12-29T20:50:24.297Z,9.00
2022-12-29T20:52:33.634Z,11.77
2022-12-29T20:54:42.715Z,8.70
2022-12-29T20:56:52.452Z,11.17
2022-12-29T20:59:26.944Z,10.63
2022-12-29T21:01:32.766Z,7.70
2022-12-29T21:03:42.527Z,12.13
2022-12-29T21:05:51.364Z,8.10
2022-12-29T21:08:01.400Z,15.17
2022-12-29T21:10:10.720Z,9.40
2022-12-29T21:12:19.948Z,12.27
2022-12-29T21:14:28.800Z,12.23
2022-12-29T21:16:40.016Z,12.03
2022-12-29T21:18:48.755Z,9.03
2022-12-29T21:20:58.588Z,8.30
2022-12-29T21:23:07.497Z,8.27
2022-12-29T21:25:16.983Z,9.13
2022-12-29T21:27:26.001Z,6.67
2022-12-29T21:29:34.801Z,5.17
2022-12-29T21:31:46.116Z,7.67
2022-12-29T21:33:55.527Z,10.13
2022-12-29T21:36:06.500Z,7.57
2022-12-29T21:38:15.844Z,5.80
2022-12-29T21:40:25.451Z,11.80
2022-12-29T21:42:34.449Z,5.90
2022-12-29T21:45:00.846Z,9.80
2022-12-29T21:47:11.153Z,9.27
2022-12-29T21:49:20.499Z,5.27
2022-12-29T21:51:46.521Z,7.87
2022-12-29T21:54:17.986Z,7.77
2022-12-29T21:56:27.046Z,7.40
2022-12-29T21:58:53.523Z,9.53
2022-12-29T22:01:19.948Z,9.47
2022-12-29T22:03:47.557Z,7.87
2022-12-29T22:06:14.466Z,8.77
2022-12-29T22:08:40.962Z,8.90
2022-12-29T22:11:07.610Z,10.00
2022-12-29T22:13:16.758Z,4.93
2022-12-29T22:15:25.981Z,6.10
2022-12-29T22:17:37.653Z,5.30
2022-12-29T22:19:48.518Z,9.70
2022-12-29T22:21:57.840Z,7.37
2022-12-29T22:24:08.557Z,9.37
2022-12-29T22:26:17.324Z,7.13
2022-12-29T22:28:26.476Z,5.10
2022-12-29T22:30:35.755Z,10.17
2022-12-29T22:32:44.880Z,9.07
2022-12-29T22:34:56.637Z,7.80
2022-12-29T22:37:05.820Z,6.53
2022-12-29T22:39:14.657Z,4.13
2022-12-29T22:41:23.929Z,9.30
2022-12-29T22:43:32.783Z,4.87
2022-12-29T22:45:42.251Z,5.57
2022-12-29T22:47:51.151Z,7.80
2022-12-29T22:50:02.312Z,4.30
2022-12-29T22:52:12.857Z,6.30
2022-12-29T22:54:23.941Z,9.60
2022-12-29T22:56:32.619Z,8.37
2022-12-29T22:58:41.952Z,10.83
2022-12-29T23:00:50.884Z,8.77
2022-12-29T23:02:59.738Z,8.80
2022-12-29T23:05:11.559Z,7.83
2022-12-29T23:07:20.603Z,10.93
2022-12-29T23:09:29.958Z,9.97
2022-12-29T23:11:38.880Z,9.63
2022-12-29T23:13:48.190Z,3.67
2022-12-29T23:15:57.176Z,9.00
2022-12-29T23:18:06.593Z,5.70
2022-12-29T23:20:17.369Z,5.67
2022-12-29T23:22:25.968Z,7.43
2022-12-29T23:24:35.035Z,7.53
2022-12-29T23:26:45.122Z,7.60
2022-12-29T23:28:59.728Z,8.77
2022-12-29T23:31:09.212Z,4.20
2022-12-29T23:33:18.795Z,5.80
2022-12-29T23:35:30.026Z,2.83
2022-12-29T23:37:39.510Z,3.97
2022-12-29T23:39:48.536Z,6.73
2022-12-29T23:41:57.448Z,8.23
2022-12-29T23:44:06.179Z,4.43
2022-12-29T23:46:16.055Z,5.87
2022-12-29T23:48:25.333Z,5.83
2022-12-29T23:50:36.149Z,6.27
2022-12-29T23:52:45.167Z,4.47
2022-12-29T23:54:54.542Z,3.03
2022-12-29T23:57:03.543Z,5.13
2022-12-29T23:59:12.367Z,5.97
